createdAt,value
2019-04-20T00:01:25.781Z,98850.00
2019-04-20T00:03:51.919Z,98852.00
2019-04-20T00:06:21.628Z,98843.00
2019-04-20T00:08:58.869Z,98853.00
2019-04-20T00:11:27.543Z,98845.00
2019-04-20T00:14:03.251Z,98839.00
2019-04-20T00:16:25.205Z,98852.00
2019-04-20T00:19:03.566Z,98852.00
2019-04-20T00:21:42.756Z,98848.00
2019-04-20T00:24:20.214Z,98836.00
2019-04-20T00:27:22.092Z,98843.00
2019-04-20T00:29:41.087Z,98837.00
2019-04-20T00:31:59.350Z,98847.00
2019-04-20T00:34:26.694Z,98840.00
2019-04-20T00:36:49.909Z,98852.00
2019-04-20T00:39:20.607Z,98833.00
2019-04-20T00:41:56.294Z,98834.00
2019-04-20T00:44:28.627Z,98838.00
2019-04-20T00:47:04.753Z,98842.00
2019-04-20T00:49:43.261Z,98839.00
2019-04-20T00:52:24.086Z,98839.00
2019-04-20T00:54:28.500Z,98843.00
2019-04-20T00:57:10.484Z,98841.00
2019-04-20T00:59:43.017Z,98836.00
2019-04-20T01:02:16.853Z,98837.00
2019-04-20T01:04:56.443Z,98828.00
2019-04-20T01:07:17.523Z,98844.00
2019-04-20T01:09:54.234Z,98834.00
2019-04-20T01:12:28.022Z,98827.00
2019-04-20T01:15:00.280Z,98832.00
2019-04-20T01:17:28.681Z,98830.00
2019-04-20T01:19:58.060Z,98837.00
2019-04-20T01:22:30.038Z,98839.00
2019-04-20T01:25:07.884Z,98829.00
2019-04-20T01:27:42.114Z,98831.00
2019-04-20T01:30:11.739Z,98837.00
2019-04-20T01:32:52.554Z,98834.00
2019-04-20T01:35:27.146Z,98825.00
2019-04-20T01:37:58.615Z,98845.00
2019-04-20T01:40:11.262Z,98827.00
2019-04-20T01:42:40.626Z,98840.00
2019-04-20T01:45:14.563Z,98829.00
2019-04-20T01:47:46.199Z,98832.00
2019-04-20T01:50:20.981Z,98829.00
2019-04-20T01:52:56.520Z,98840.00
2019-04-20T02:14:03.636Z,98848.00
2019-04-20T02:16:37.231Z,98837.00
2019-04-20T02:19:13.843Z,98831.00
2019-04-20T02:21:46.661Z,98841.00
2019-04-20T02:24:06.401Z,98839.00
2019-04-20T02:26:34.744Z,98838.00
2019-04-20T02:29:30.646Z,98841.00
2019-04-20T02:34:47.850Z,98831.00
2019-04-20T02:39:55.906Z,98837.00
2019-04-20T02:42:25.911Z,98839.00
2019-04-20T02:45:00.187Z,98824.00
2019-04-20T02:47:30.515Z,98826.00
2019-04-20T02:55:05.908Z,98827.00
2019-04-20T02:57:34.283Z,98828.00
2019-04-20T03:00:05.475Z,98825.00
2019-04-20T03:02:18.227Z,98827.00
2019-04-20T03:04:42.545Z,98818.00
2019-04-20T03:07:20.615Z,98828.00
2019-04-20T03:09:56.296Z,98825.00
2019-04-20T03:12:33.161Z,98827.00
2019-04-20T03:14:52.532Z,98819.00
2019-04-20T03:17:33.864Z,98823.00
2019-04-20T03:19:57.283Z,98821.00
2019-04-20T03:23:02.423Z,98816.00
2019-04-20T03:25:07.524Z,98812.00
2019-04-20T03:27:37.181Z,98815.00
2019-04-20T03:33:23.154Z,98818.00
2019-04-20T03:35:52.862Z,98817.00
2019-04-20T03:38:11.621Z,98815.00
2019-04-20T03:40:46.721Z,98819.00
2019-04-20T03:43:02.690Z,98826.00
2019-04-20T03:45:41.601Z,98820.00
2019-04-20T03:48:16.097Z,98827.00
2019-04-20T03:50:53.226Z,98827.00
2019-04-20T03:53:29.328Z,98834.00
2019-04-20T03:55:56.718Z,98824.00
2019-04-20T03:58:45.398Z,98816.00
2019-04-20T04:01:22.806Z,98821.00
2019-04-20T04:04:07.442Z,98814.00
2019-04-20T04:06:24.181Z,98821.00
2019-04-20T04:09:02.713Z,98824.00
2019-04-20T04:11:35.018Z,98826.00
2019-04-20T04:13:50.366Z,98829.00
2019-04-20T04:16:21.973Z,98832.00
2019-04-20T04:19:01.383Z,98829.00
2019-04-20T04:21:40.766Z,98836.00
2019-04-20T04:24:11.976Z,98822.00
2019-04-20T04:26:39.394Z,98832.00
2019-04-20T04:29:22.611Z,98827.00
2019-04-20T04:31:59.506Z,98829.00
2019-04-20T04:34:20.668Z,98833.00
2019-04-20T04:36:53.718Z,98834.00
2019-04-20T04:39:27.471Z,98835.00
2019-04-20T04:42:05.237Z,98839.00
2019-04-20T04:44:21.453Z,98839.00
2019-04-20T04:46:43.526Z,98840.00
2019-04-20T04:49:18.063Z,98855.00
2019-04-20T04:51:46.862Z,98842.00
2019-04-20T04:54:16.617Z,98852.00
2019-04-20T04:56:39.775Z,98841.00
2019-04-20T04:59:10.599Z,98841.00
2019-04-20T05:01:40.503Z,98846.00
2019-04-20T05:04:37.831Z,98847.00
2019-04-20T05:06:59.877Z,98852.00
2019-04-20T05:09:15.418Z,98846.00
2019-04-20T05:11:44.753Z,98854.00
2019-04-20T05:14:21.641Z,98854.00
2019-04-20T05:17:01.775Z,98860.00
2019-04-20T05:19:38.182Z,98855.00
2019-04-20T05:22:27.557Z,98861.00
2019-04-20T05:24:53.709Z,98868.00
2019-04-20T05:27:40.510Z,98863.00
2019-04-20T05:29:48.834Z,98853.00
2019-04-20T05:32:29.481Z,98854.00
2019-04-20T05:35:12.196Z,98856.00
2019-04-20T05:37:57.369Z,98862.00
2019-04-20T05:40:17.261Z,98851.00
2019-04-20T05:42:50.000Z,98851.00
2019-04-20T05:45:17.821Z,98845.00
2019-04-20T05:47:49.273Z,98864.00
2019-04-20T05:50:23.280Z,98858.00
2019-04-20T05:53:01.663Z,98851.00
2019-04-20T05:55:29.447Z,98848.00
2019-04-20T05:58:01.976Z,98857.00
2019-04-20T06:00:33.856Z,98843.00
2019-04-20T06:03:00.470Z,98850.00
2019-04-20T06:05:36.958Z,98853.00
2019-04-20T06:08:09.317Z,98864.00
2019-04-20T06:10:38.434Z,98847.00
2019-04-20T06:13:15.996Z,98854.00
2019-04-20T06:15:53.149Z,98847.00
2019-04-20T06:18:35.049Z,98846.00
2019-04-20T06:21:19.734Z,98852.00
2019-04-20T06:23:59.480Z,98849.00
2019-04-20T06:26:43.504Z,98851.00
2019-04-20T06:28:50.792Z,98850.00
2019-04-20T06:31:30.056Z,98851.00
2019-04-20T06:42:13.755Z,98853.00
2019-04-20T06:44:34.069Z,98856.00
2019-04-20T06:49:35.429Z,98854.00
2019-04-20T06:52:34.118Z,98859.00
2019-04-20T06:55:03.035Z,98856.00
2019-04-20T06:57:40.687Z,98865.00
2019-04-20T07:00:14.133Z,98854.00
2019-04-20T07:02:44.368Z,98852.00
2019-04-20T07:05:11.816Z,98860.00
2019-04-20T07:07:47.604Z,98854.00
2019-04-20T07:10:19.376Z,98869.00
2019-04-20T07:12:43.653Z,98855.00
2019-04-20T07:15:16.324Z,98850.00
2019-04-20T07:18:09.222Z,98851.00
2019-04-20T07:20:19.535Z,98844.00
2019-04-20T07:23:11.629Z,98861.00
2019-04-20T07:25:34.535Z,98851.00
2019-04-20T07:28:07.640Z,98850.00
2019-04-20T07:30:35.443Z,98853.00
2019-04-20T07:33:08.724Z,98848.00
2019-04-20T07:35:35.443Z,98855.00
2019-04-20T07:39:09.176Z,98852.00
2019-04-20T07:40:35.966Z,98853.00
2019-04-20T07:43:09.173Z,98841.00
2019-04-20T07:45:36.413Z,98853.00
2019-04-20T07:48:16.752Z,98845.00
2019-04-20T07:50:37.527Z,98841.00
2019-04-20T07:53:15.458Z,98842.00
2019-04-20T07:55:50.724Z,98832.00
2019-04-20T07:58:12.154Z,98834.00
2019-04-20T08:01:04.291Z,98846.00
2019-04-20T08:05:59.387Z,98828.00
2019-04-20T08:08:35.275Z,98823.00
2019-04-20T08:11:07.795Z,98821.00
2019-04-20T08:13:49.347Z,98825.00
2019-04-20T08:16:14.582Z,98826.00
2019-04-20T08:18:45.858Z,98826.00
2019-04-20T08:21:17.928Z,98811.00
2019-04-20T08:23:47.294Z,98817.00
2019-04-20T08:26:05.505Z,98815.00
2019-04-20T08:28:39.175Z,98812.00
2019-04-20T08:31:21.729Z,98822.00
2019-04-20T08:34:31.223Z,98817.00
2019-04-20T08:36:45.474Z,98815.00
2019-04-20T08:41:53.467Z,98820.00
2019-04-20T08:44:42.219Z,98819.00
2019-04-20T08:46:59.396Z,98828.00
2019-04-20T08:49:26.402Z,98810.00
2019-04-20T08:52:01.711Z,98805.00
2019-04-20T08:54:23.282Z,98815.00
2019-04-20T08:56:43.402Z,98808.00
2019-04-20T08:59:06.723Z,98795.00
2019-04-20T09:01:38.727Z,98808.00
2019-04-20T09:04:14.403Z,98810.00
2019-04-20T09:06:52.160Z,98811.00
2019-04-20T09:09:38.058Z,98815.00
2019-04-20T09:12:03.339Z,98806.00
2019-04-20T09:14:21.264Z,98814.00
2019-04-20T09:17:01.533Z,98811.00
2019-04-20T09:19:36.713Z,98800.00
2019-04-20T09:22:24.464Z,98795.00
2019-04-20T09:25:16.398Z,98807.00
2019-04-20T09:27:26.902Z,98800.00
2019-04-20T09:30:05.889Z,98786.00
2019-04-20T09:32:36.123Z,98784.00
2019-04-20T09:35:15.951Z,98795.00
2019-04-20T09:37:59.643Z,98782.00
2019-04-20T09:40:35.021Z,98791.00
2019-04-20T09:42:54.934Z,98788.00
2019-04-20T09:45:32.982Z,98775.00
2019-04-20T09:47:58.362Z,98774.00
2019-04-20T09:50:50.964Z,98785.00
2019-04-20T09:53:14.222Z,98780.00
2019-04-20T09:55:46.872Z,98781.00
2019-04-20T09:58:15.427Z,98773.00
2019-04-20T10:00:59.472Z,98779.00
2019-04-20T10:03:16.566Z,98770.00
2019-04-20T10:05:47.463Z,98772.00
2019-04-20T10:08:17.629Z,98791.00
2019-04-20T10:10:51.178Z,98781.00
2019-04-20T10:13:21.562Z,98782.00
2019-04-20T10:15:51.064Z,98769.00
2019-04-20T10:18:27.942Z,98765.00
2019-04-20T10:20:57.887Z,98767.00
2019-04-20T10:23:27.496Z,98773.00
2019-04-20T10:25:58.587Z,98769.00
2019-04-20T10:28:28.104Z,98775.00
2019-04-20T10:30:58.809Z,98774.00
2019-04-20T10:33:28.862Z,98765.00
2019-04-20T10:35:59.452Z,98781.00
2019-04-20T10:38:34.003Z,98784.00
2019-04-20T10:41:11.252Z,98780.00
2019-04-20T10:43:33.361Z,98765.00
2019-04-20T10:46:02.809Z,98767.00
2019-04-20T10:48:40.228Z,98779.00
2019-04-20T10:51:03.251Z,98772.00
2019-04-20T10:53:32.687Z,98768.00
2019-04-20T10:56:03.450Z,98774.00
2019-04-20T10:58:33.738Z,98773.00
2019-04-20T11:01:03.920Z,98769.00
2019-04-20T11:03:40.727Z,98761.00
2019-04-20T11:06:11.045Z,98758.00
2019-04-20T11:08:40.558Z,98756.00
2019-04-20T11:11:17.541Z,98743.00
2019-04-20T11:13:41.446Z,98764.00
2019-04-20T11:16:10.984Z,98747.00
2019-04-20T11:18:40.346Z,98749.00
2019-04-20T11:21:11.281Z,98734.00
2019-04-20T11:23:44.535Z,98745.00
2019-04-20T11:26:14.126Z,98741.00
2019-04-20T11:28:44.189Z,98746.00
2019-04-20T11:31:14.478Z,98738.00
2019-04-20T11:33:45.879Z,98733.00
2019-04-20T11:36:17.027Z,98727.00
2019-04-20T11:38:47.069Z,98728.00
2019-04-20T11:41:23.739Z,98721.00
2019-04-20T11:43:47.521Z,98718.00
2019-04-20T11:46:23.133Z,98718.00
2019-04-20T11:48:52.516Z,98722.00
2019-04-20T11:51:21.868Z,98715.00
2019-04-20T11:53:52.227Z,98719.00
2019-04-20T11:56:26.700Z,98709.00
2019-04-20T11:58:53.164Z,98704.00
2019-04-20T12:01:34.740Z,98699.00
2019-04-20T12:04:09.196Z,98718.00
2019-04-20T12:06:30.727Z,98704.00
2019-04-20T12:09:01.060Z,98706.00
2019-04-20T12:11:41.773Z,98704.00
2019-04-20T12:14:02.748Z,98700.00
2019-04-20T12:16:32.118Z,98706.00
2019-04-20T12:19:04.733Z,98702.00
2019-04-20T12:21:34.810Z,98702.00
2019-04-20T12:24:04.856Z,98693.00
2019-04-20T12:26:38.645Z,98697.00
2019-04-20T12:29:08.114Z,98685.00
2019-04-20T12:31:37.749Z,98686.00
2019-04-20T12:34:08.466Z,98680.00
2019-04-20T12:36:39.387Z,98675.00
2019-04-20T12:39:10.986Z,98679.00
2019-04-20T12:41:48.036Z,98670.00
2019-04-20T12:44:12.283Z,98674.00
2019-04-20T12:46:41.596Z,98679.00
2019-04-20T12:49:11.675Z,98674.00
2019-04-20T12:51:48.714Z,98672.00
2019-04-20T12:54:12.174Z,98670.00
2019-04-20T12:56:42.495Z,98666.00
2019-04-20T12:59:11.900Z,98668.00
2019-04-20T13:01:41.559Z,98659.00
2019-04-20T13:04:12.051Z,98666.00
2019-04-20T13:06:42.781Z,98651.00
2019-04-20T13:09:12.875Z,98656.00
2019-04-20T13:11:52.252Z,98648.00
2019-04-20T13:14:46.423Z,98645.00
2019-04-20T13:17:16.701Z,98647.00
2019-04-20T13:19:47.056Z,98633.00
2019-04-20T13:22:17.023Z,98633.00
2019-04-20T13:24:47.339Z,98642.00
2019-04-20T13:27:16.886Z,98632.00
2019-04-20T13:29:49.163Z,98632.00
2019-04-20T13:32:18.127Z,98633.00
2019-04-20T13:34:47.615Z,98620.00
2019-04-20T13:37:18.031Z,98630.00
2019-04-20T13:39:49.469Z,98629.00
2019-04-20T13:42:24.453Z,98616.00
2019-04-20T13:44:50.926Z,98614.00
2019-04-20T13:47:25.103Z,98624.00
2019-04-20T13:49:54.885Z,98616.00
2019-04-20T13:52:24.764Z,98603.00
2019-04-20T13:54:55.894Z,98593.00
2019-04-20T13:57:42.076Z,98600.00
2019-04-20T14:00:22.246Z,98607.00
2019-04-20T14:03:03.068Z,98599.00
2019-04-20T14:05:35.488Z,98585.00
2019-04-20T14:08:09.829Z,98585.00
2019-04-20T14:10:39.699Z,98586.00
2019-04-20T14:13:14.885Z,98582.00
2019-04-20T14:15:40.993Z,98577.00
2019-04-20T14:18:11.151Z,98582.00
2019-04-20T14:20:47.940Z,98576.00
2019-04-20T14:23:14.845Z,98564.00
2019-04-20T14:25:45.089Z,98564.00
2019-04-20T14:28:15.457Z,98565.00
2019-04-20T14:30:45.925Z,98570.00
2019-04-20T14:33:16.673Z,98570.00
2019-04-20T14:35:47.002Z,98559.00
2019-04-20T14:38:17.672Z,98565.00
2019-04-20T14:40:48.357Z,98556.00
2019-04-20T14:43:19.369Z,98541.00
2019-04-20T14:45:50.523Z,98547.00
2019-04-20T14:48:25.135Z,98559.00
2019-04-20T14:50:55.977Z,98539.00
2019-04-20T14:53:25.460Z,98552.00
2019-04-20T14:56:01.851Z,98528.00
2019-04-20T14:58:41.384Z,98542.00
2019-04-20T15:01:28.485Z,98536.00
2019-04-20T15:04:04.795Z,98524.00
2019-04-20T15:06:29.778Z,98525.00
2019-04-20T15:09:21.063Z,98527.00
2019-04-20T15:11:50.798Z,98520.00
2019-04-20T15:14:20.750Z,98516.00
2019-04-20T15:16:50.974Z,98526.00
2019-04-20T15:19:23.318Z,98523.00
2019-04-20T15:21:57.829Z,98507.00
2019-04-20T15:24:27.478Z,98514.00
2019-04-20T15:26:56.868Z,98515.00
2019-04-20T15:29:26.469Z,98517.00
2019-04-20T15:31:56.532Z,98512.00
2019-04-20T15:34:26.794Z,98511.00
2019-04-20T15:36:56.308Z,98510.00
2019-04-20T15:39:25.678Z,98514.00
2019-04-20T15:41:55.045Z,98521.00
2019-04-20T15:44:25.121Z,98511.00
2019-04-20T15:46:55.228Z,98503.00
2019-04-20T15:49:26.310Z,98511.00
2019-04-20T15:51:57.506Z,98506.00
2019-04-20T15:54:27.507Z,98506.00
2019-04-20T15:57:02.366Z,98512.00
2019-04-20T15:59:32.633Z,98509.00
2019-04-20T16:02:05.063Z,98507.00
2019-04-20T16:04:49.110Z,98505.00
2019-04-20T16:07:19.750Z,98503.00
2019-04-20T16:09:50.470Z,98501.00
2019-04-20T16:12:20.856Z,98507.00
2019-04-20T16:14:51.382Z,98500.00
2019-04-20T16:17:25.205Z,98500.00
2019-04-20T16:20:00.365Z,98493.00
2019-04-20T16:22:25.843Z,98500.00
2019-04-20T16:24:56.955Z,98494.00
2019-04-20T16:27:31.776Z,98489.00
2019-04-20T16:30:02.007Z,98488.00
2019-04-20T16:32:32.412Z,98490.00
2019-04-20T16:35:02.875Z,98490.00
2019-04-20T16:37:32.720Z,98489.00
2019-04-20T16:40:04.289Z,98483.00
2019-04-20T16:42:34.470Z,98493.00
2019-04-20T16:45:07.666Z,98477.00
2019-04-20T16:47:37.039Z,98478.00
2019-04-20T16:50:08.833Z,98485.00
2019-04-20T16:52:39.128Z,98493.00
2019-04-20T16:55:11.210Z,98476.00
2019-04-20T16:57:39.877Z,98480.00
2019-04-20T17:00:11.544Z,98473.00
2019-04-20T17:02:40.922Z,98483.00
2019-04-20T17:05:11.370Z,98479.00
2019-04-20T17:07:45.334Z,98467.00
2019-04-20T17:10:17.973Z,98479.00
2019-04-20T17:12:48.074Z,98472.00
2019-04-20T17:15:19.569Z,98476.00
2019-04-20T17:17:57.170Z,98477.00
2019-04-20T17:20:27.536Z,98476.00
2019-04-20T17:23:06.961Z,98476.00
2019-04-20T17:25:35.688Z,98475.00
2019-04-20T17:28:07.218Z,98477.00
2019-04-20T17:30:55.169Z,98483.00
2019-04-20T17:33:27.977Z,98473.00
2019-04-20T17:36:08.463Z,98479.00
2019-04-20T17:38:34.756Z,98478.00
2019-04-20T17:41:18.172Z,98477.00
2019-04-20T17:43:49.447Z,98480.00
2019-04-20T17:46:12.091Z,98477.00
2019-04-20T17:48:46.951Z,98484.00
2019-04-20T17:51:30.344Z,98479.00
2019-04-20T17:53:49.163Z,98485.00
2019-04-20T17:56:12.819Z,98490.00
2019-04-20T17:58:42.197Z,98492.00
2019-04-20T18:01:35.801Z,98487.00
2019-04-20T18:04:31.081Z,98489.00
2019-04-20T18:06:43.702Z,98479.00
2019-04-20T18:09:18.444Z,98483.00
2019-04-20T18:11:42.581Z,98482.00
2019-04-20T18:14:28.591Z,98480.00
2019-04-20T18:17:13.827Z,98500.00
2019-04-20T18:19:43.075Z,98494.00
2019-04-20T18:22:13.989Z,98486.00
2019-04-20T18:25:09.027Z,98489.00
2019-04-20T18:27:37.396Z,98488.00
2019-04-20T18:30:08.136Z,98494.00
2019-04-20T18:32:33.666Z,98485.00
2019-04-20T18:35:08.349Z,98489.00
2019-04-20T18:37:36.794Z,98499.00
2019-04-20T18:40:12.423Z,98490.00
2019-04-20T18:42:43.474Z,98499.00
2019-04-20T18:45:28.059Z,98501.00
2019-04-20T18:48:04.814Z,98508.00
2019-04-20T18:50:24.448Z,98495.00
2019-04-20T18:52:47.833Z,98509.00
2019-04-20T18:55:23.486Z,98503.00
2019-04-20T18:57:49.138Z,98514.00
2019-04-20T19:00:27.984Z,98512.00
2019-04-20T19:02:56.106Z,98515.00
2019-04-20T19:05:26.034Z,98504.00
2019-04-20T19:07:59.981Z,98514.00
2019-04-20T19:10:31.354Z,98509.00
2019-04-20T19:13:08.102Z,98518.00
2019-04-20T19:16:08.170Z,98512.00
2019-04-20T19:18:44.451Z,98527.00
2019-04-20T19:21:03.737Z,98527.00
2019-04-20T19:23:59.873Z,98524.00
2019-04-20T19:26:25.117Z,98525.00
2019-04-20T19:28:59.404Z,98519.00
2019-04-20T19:31:42.327Z,98531.00
2019-04-20T19:34:15.188Z,98531.00
2019-04-20T19:36:34.910Z,98534.00
2019-04-20T19:39:17.322Z,98534.00
2019-04-20T19:41:42.254Z,98528.00
2019-04-20T19:44:14.780Z,98523.00
2019-04-20T19:46:55.068Z,98537.00
2019-04-20T19:49:19.637Z,98531.00
2019-04-20T19:52:02.902Z,98541.00
2019-04-20T19:54:30.248Z,98539.00
2019-04-20T19:56:55.511Z,98534.00
2019-04-20T19:59:32.792Z,98535.00
2019-04-20T20:01:53.833Z,98540.00
2019-04-20T20:04:23.887Z,98535.00
2019-04-20T20:07:01.302Z,98541.00
2019-04-20T20:09:25.904Z,98541.00
2019-04-20T20:12:02.638Z,98540.00
2019-04-20T20:14:34.295Z,98535.00
2019-04-20T20:17:13.826Z,98540.00
2019-04-20T20:19:46.166Z,98545.00
2019-04-20T20:22:12.820Z,98540.00
2019-04-20T20:24:31.604Z,98550.00
2019-04-20T20:27:06.217Z,98541.00
2019-04-20T20:29:38.376Z,98554.00
2019-04-20T20:32:15.599Z,98540.00
2019-04-20T20:34:40.511Z,98550.00
2019-04-20T20:37:11.115Z,98558.00
2019-04-20T20:39:40.391Z,98544.00
2019-04-20T20:42:19.043Z,98539.00
2019-04-20T20:44:50.600Z,98542.00
2019-04-20T20:47:37.271Z,98544.00
2019-04-20T20:50:11.307Z,98551.00
2019-04-20T20:52:32.457Z,98553.00
2019-04-20T20:54:56.324Z,98552.00
2019-04-20T20:57:23.925Z,98547.00
2019-04-20T20:59:55.256Z,98557.00
2019-04-20T21:02:24.487Z,98555.00
2019-04-20T21:04:51.432Z,98562.00
2019-04-20T21:07:20.978Z,98554.00
2019-04-20T21:09:50.534Z,98557.00
2019-04-20T21:12:21.774Z,98549.00
2019-04-20T21:14:51.101Z,98554.00
2019-04-20T21:17:24.275Z,98559.00
2019-04-20T21:20:06.394Z,98557.00
2019-04-20T21:22:45.026Z,98552.00
2019-04-20T21:25:05.387Z,98561.00
2019-04-20T21:27:34.994Z,98563.00
2019-04-20T21:30:17.238Z,98562.00
2019-04-20T21:32:43.463Z,98559.00
2019-04-20T21:35:12.829Z,98566.00
2019-04-20T21:37:47.046Z,98544.00
2019-04-20T21:40:23.249Z,98563.00
2019-04-20T21:42:51.714Z,98554.00
2019-04-20T21:45:20.036Z,98553.00
2019-04-20T21:47:47.034Z,98563.00
2019-04-20T21:50:31.221Z,98566.00
2019-04-20T21:52:51.979Z,98545.00
2019-04-20T21:55:19.763Z,98554.00
2019-04-20T21:57:53.906Z,98553.00
2019-04-20T22:00:44.572Z,98551.00
2019-04-20T22:03:11.885Z,98551.00
2019-04-20T22:05:42.331Z,98545.00
2019-04-20T22:08:15.887Z,98558.00
2019-04-20T22:10:43.191Z,98550.00
2019-04-20T22:13:14.025Z,98547.00
2019-04-20T22:15:51.849Z,98544.00
2019-04-20T22:18:20.105Z,98541.00
2019-04-20T22:21:01.992Z,98546.00
2019-04-20T22:23:36.612Z,98536.00
2019-04-20T22:26:03.946Z,98543.00
2019-04-20T22:28:20.352Z,98540.00
2019-04-20T22:30:50.419Z,98540.00
2019-04-20T22:33:29.850Z,98538.00
2019-04-20T22:35:59.504Z,98543.00
2019-04-20T22:38:28.862Z,98549.00
2019-04-20T22:41:05.623Z,98543.00
2019-04-20T22:43:33.692Z,98539.00
2019-04-20T22:46:01.276Z,98530.00
2019-04-20T22:48:31.337Z,98527.00
2019-04-20T22:51:19.571Z,98529.00
2019-04-20T22:53:44.194Z,98524.00
2019-04-20T22:56:24.420Z,98534.00
2019-04-20T22:58:43.253Z,98523.00
2019-04-20T23:01:19.425Z,98527.00
2019-04-20T23:03:37.685Z,98530.00
2019-04-20T23:06:09.015Z,98523.00
2019-04-20T23:08:38.466Z,98529.00
2019-04-20T23:11:14.817Z,98522.00
2019-04-20T23:13:42.899Z,98526.00
2019-04-20T23:16:11.511Z,98504.00
2019-04-20T23:18:42.161Z,98515.00
2019-04-20T23:21:15.419Z,98516.00
2019-04-20T23:23:43.686Z,98505.00
2019-04-20T23:26:16.903Z,98508.00
2019-04-20T23:28:48.297Z,98509.00
2019-04-20T23:31:20.133Z,98500.00
2019-04-20T23:33:47.765Z,98495.00
2019-04-20T23:36:19.311Z,98497.00
2019-04-20T23:38:52.684Z,98494.00
2019-04-20T23:41:19.700Z,98488.00
2019-04-20T23:44:03.873Z,98492.00
2019-04-20T23:46:45.383Z,98483.00
2019-04-20T23:49:37.645Z,98481.00
2019-04-20T23:52:26.691Z,98481.00
2019-04-20T23:54:35.076Z,98477.00
2019-04-20T23:57:01.891Z,98463.00
2019-04-20T23:59:37.540Z,98481.00
